createdAt,value
2022-12-16T00:01:29.668Z,52.03
2022-12-16T00:04:00.048Z,55.13
2022-12-16T00:06:32.262Z,55.37
2022-12-16T00:09:00.571Z,64.07
2022-12-16T00:11:32.291Z,57.00
2022-12-16T00:14:00.445Z,67.33
2022-12-16T00:16:30.384Z,59.43
2022-12-16T00:18:58.720Z,64.70
2022-12-16T00:21:29.517Z,49.73
2022-12-16T00:23:58.156Z,61.33
2022-12-16T00:26:26.712Z,55.10
2022-12-16T00:28:54.970Z,66.33
2022-12-16T00:31:23.505Z,57.93
2022-12-16T00:33:56.527Z,72.63
2022-12-16T00:36:26.895Z,64.50
2022-12-16T00:38:55.159Z,58.30
2022-12-16T00:41:23.550Z,57.67
2022-12-16T00:43:51.783Z,58.80
2022-12-16T00:46:20.018Z,63.13
2022-12-16T00:48:48.340Z,57.77
2022-12-16T00:51:19.288Z,56.57
2022-12-16T00:53:49.441Z,59.07
2022-12-16T00:56:18.251Z,51.23
2022-12-16T00:58:46.463Z,57.63
2022-12-16T01:01:14.812Z,57.17
2022-12-16T01:03:43.307Z,55.63
2022-12-16T01:06:13.286Z,59.70
2022-12-16T01:08:48.645Z,52.80
2022-12-16T01:11:18.548Z,55.67
2022-12-16T01:13:47.578Z,55.63
2022-12-16T01:16:16.042Z,53.93
2022-12-16T01:18:46.235Z,57.10
2022-12-16T01:21:17.312Z,56.10
2022-12-16T01:23:49.279Z,52.07
2022-12-16T01:26:19.254Z,53.30
2022-12-16T01:28:50.087Z,50.87
2022-12-16T01:31:21.550Z,58.50
2022-12-16T01:33:51.636Z,49.47
2022-12-16T01:36:20.448Z,58.63
2022-12-16T01:38:50.675Z,58.97
2022-12-16T01:41:19.305Z,57.93
2022-12-16T01:43:48.438Z,55.73
2022-12-16T01:46:23.352Z,55.97
2022-12-16T01:48:56.394Z,51.00
2022-12-16T01:51:29.839Z,55.70
2022-12-16T01:54:03.722Z,57.30
2022-12-16T01:56:34.357Z,57.50
2022-12-16T01:59:04.245Z,55.87
2022-12-16T02:01:34.046Z,53.97
2022-12-16T02:04:04.977Z,60.33
2022-12-16T02:06:34.108Z,53.23
2022-12-16T02:09:07.899Z,54.60
2022-12-16T02:11:54.435Z,63.30
2022-12-16T02:14:59.623Z,57.20
2022-12-16T02:17:47.084Z,55.80
2022-12-16T02:20:46.929Z,57.50
2022-12-16T02:23:34.597Z,57.23
2022-12-16T02:26:38.804Z,58.33
2022-12-16T02:29:38.197Z,61.13
2022-12-16T02:32:18.527Z,52.63
2022-12-16T02:34:55.835Z,52.87
2022-12-16T02:37:37.027Z,53.77
2022-12-16T02:40:12.269Z,50.53
2022-12-16T02:42:46.126Z,51.77
2022-12-16T02:45:18.224Z,48.17
2022-12-16T02:47:47.923Z,55.53
2022-12-16T02:50:24.532Z,54.07
2022-12-16T02:52:55.045Z,43.37
2022-12-16T02:55:30.097Z,55.83
2022-12-16T02:58:16.907Z,56.00
2022-12-16T03:00:54.891Z,53.80
2022-12-16T03:03:32.073Z,56.30
2022-12-16T03:06:02.869Z,52.00
2022-12-16T03:08:38.007Z,49.90
2022-12-16T03:11:08.826Z,53.13
2022-12-16T03:13:41.924Z,47.37
2022-12-16T03:16:14.303Z,50.33
2022-12-16T03:18:48.776Z,43.93
2022-12-16T03:21:19.091Z,52.70
2022-12-16T03:23:53.204Z,48.23
2022-12-16T03:26:27.288Z,51.43
2022-12-16T03:29:03.520Z,48.10
2022-12-16T03:31:40.077Z,48.77
2022-12-16T03:34:18.456Z,54.70
2022-12-16T03:36:55.228Z,51.57
2022-12-16T03:39:27.234Z,46.90
2022-12-16T03:41:57.370Z,51.47
2022-12-16T03:44:26.457Z,46.60
2022-12-16T03:46:55.035Z,49.27
2022-12-16T03:49:25.060Z,46.17
2022-12-16T03:51:54.870Z,46.67
2022-12-16T03:54:23.653Z,48.63
2022-12-16T03:56:54.375Z,47.73
2022-12-16T03:59:23.077Z,51.10
2022-12-16T04:01:51.858Z,53.73
2022-12-16T04:04:20.991Z,47.80
2022-12-16T04:07:11.236Z,47.23
2022-12-16T04:09:39.877Z,49.37
2022-12-16T04:12:50.626Z,48.93
2022-12-16T04:15:33.251Z,52.07
2022-12-16T04:18:19.159Z,53.60
2022-12-16T04:21:09.090Z,51.33
2022-12-16T04:24:01.243Z,46.90
2022-12-16T04:26:29.513Z,44.93
2022-12-16T04:28:57.773Z,55.50
2022-12-16T04:31:26.196Z,53.27
2022-12-16T04:34:23.617Z,52.80
2022-12-16T04:37:09.286Z,45.97
2022-12-16T04:39:56.457Z,56.47
2022-12-16T04:42:42.256Z,58.10
2022-12-16T04:45:30.110Z,54.73
2022-12-16T04:48:17.237Z,53.63
2022-12-16T04:51:03.831Z,55.30
2022-12-16T04:53:49.770Z,55.70
2022-12-16T04:56:36.632Z,53.70
2022-12-16T04:59:23.759Z,55.23
2022-12-16T05:02:12.646Z,52.50
2022-12-16T05:04:58.737Z,48.50
2022-12-16T05:07:44.456Z,47.63
2022-12-16T05:10:30.064Z,54.57
2022-12-16T05:13:16.980Z,50.50
2022-12-16T05:15:58.987Z,51.57
2022-12-16T05:18:44.585Z,52.07
2022-12-16T05:21:33.033Z,61.40
2022-12-16T05:24:18.740Z,52.90
2022-12-16T05:27:04.804Z,51.73
2022-12-16T05:29:51.686Z,46.83
2022-12-16T05:32:36.880Z,49.20
2022-12-16T05:35:22.628Z,46.60
2022-12-16T05:38:08.300Z,57.10
2022-12-16T05:40:59.040Z,42.80
2022-12-16T05:43:44.630Z,50.90
2022-12-16T05:46:33.988Z,53.67
2022-12-16T05:49:19.703Z,48.10
2022-12-16T05:52:05.340Z,58.40
2022-12-16T05:54:51.037Z,52.53
2022-12-16T05:57:36.850Z,50.37
2022-12-16T06:00:23.320Z,44.90
2022-12-16T06:03:10.681Z,48.10
2022-12-16T06:05:56.469Z,45.73
2022-12-16T06:08:42.224Z,51.97
2022-12-16T06:11:29.923Z,49.63
2022-12-16T06:14:15.350Z,53.43
2022-12-16T06:17:01.347Z,49.37
2022-12-16T06:19:50.926Z,54.50
2022-12-16T06:22:51.378Z,60.10
2022-12-16T06:25:37.307Z,52.60
2022-12-16T06:28:23.049Z,49.70
2022-12-16T06:31:08.634Z,49.07
2022-12-16T06:33:55.136Z,51.20
2022-12-16T06:36:42.197Z,49.30
2022-12-16T06:39:28.011Z,50.63
2022-12-16T06:42:13.838Z,50.50
2022-12-16T06:44:59.519Z,49.50
2022-12-16T06:47:45.639Z,47.80
2022-12-16T06:50:31.121Z,56.80
2022-12-16T06:53:18.050Z,55.07
2022-12-16T06:56:04.348Z,60.70
2022-12-16T06:58:51.967Z,50.77
2022-12-16T07:01:37.571Z,54.53
2022-12-16T07:04:23.826Z,51.90
2022-12-16T07:07:11.419Z,46.47
2022-12-16T07:09:58.524Z,51.03
2022-12-16T07:12:44.161Z,63.03
2022-12-16T07:15:30.211Z,52.53
2022-12-16T07:18:15.865Z,51.57
2022-12-16T07:21:01.749Z,58.27
2022-12-16T07:23:47.134Z,54.73
2022-12-16T07:26:35.627Z,56.80
2022-12-16T07:29:24.405Z,55.30
2022-12-16T07:32:10.786Z,54.50
2022-12-16T07:34:56.350Z,55.43
2022-12-16T07:37:42.079Z,54.13
2022-12-16T07:40:28.850Z,51.53
2022-12-16T07:43:16.106Z,55.93
2022-12-16T07:46:02.782Z,46.70
2022-12-16T07:48:48.477Z,58.67
2022-12-16T07:51:34.264Z,58.03
2022-12-16T07:54:20.890Z,49.47
2022-12-16T07:57:07.547Z,57.20
2022-12-16T07:59:57.438Z,55.13
2022-12-16T08:02:45.186Z,56.67
2022-12-16T08:05:31.029Z,54.73
2022-12-16T08:08:16.825Z,59.73
2022-12-16T08:11:02.723Z,56.13
2022-12-16T08:13:48.603Z,57.43
2022-12-16T08:16:41.574Z,53.33
2022-12-16T08:19:27.014Z,52.60
2022-12-16T08:22:12.705Z,58.57
2022-12-16T08:24:58.322Z,51.80
2022-12-16T08:27:44.120Z,55.80
2022-12-16T08:30:30.516Z,48.13
2022-12-16T08:33:19.506Z,56.73
2022-12-16T08:36:05.950Z,47.50
2022-12-16T08:38:51.560Z,47.87
2022-12-16T08:41:37.506Z,49.67
2022-12-16T08:44:23.179Z,51.47
2022-12-16T08:47:11.014Z,48.47
2022-12-16T08:50:01.475Z,52.83
2022-12-16T08:52:48.555Z,48.07
2022-12-16T08:55:34.123Z,49.07
2022-12-16T08:58:20.004Z,48.93
2022-12-16T09:01:07.687Z,47.17
2022-12-16T09:03:54.071Z,50.33
2022-12-16T09:06:41.456Z,50.63
2022-12-16T09:09:27.603Z,43.53
2022-12-16T09:12:13.641Z,53.33
2022-12-16T09:14:59.364Z,46.97
2022-12-16T09:17:45.050Z,51.03
2022-12-16T09:20:30.369Z,46.57
2022-12-16T09:23:20.539Z,46.33
2022-12-16T09:26:05.958Z,44.80
2022-12-16T09:28:51.409Z,46.97
2022-12-16T09:31:39.051Z,51.23
2022-12-16T09:34:25.244Z,45.00
2022-12-16T09:37:11.200Z,46.50
2022-12-16T09:39:58.543Z,44.87
2022-12-16T09:42:55.662Z,42.10
2022-12-16T09:45:50.583Z,46.50
2022-12-16T09:48:42.933Z,47.20
2022-12-16T09:51:31.468Z,44.93
2022-12-16T09:54:18.905Z,44.23
2022-12-16T09:57:07.271Z,38.93
2022-12-16T09:59:56.507Z,46.87
2022-12-16T10:02:44.247Z,46.63
2022-12-16T10:05:32.106Z,46.33
2022-12-16T10:08:26.262Z,39.83
2022-12-16T10:11:19.392Z,41.87
2022-12-16T10:14:17.772Z,41.97
2022-12-16T10:17:14.960Z,38.73
2022-12-16T10:20:09.779Z,42.63
2022-12-16T10:23:03.114Z,40.23
2022-12-16T10:25:55.534Z,39.07
2022-12-16T10:28:48.910Z,40.37
2022-12-16T10:31:36.635Z,37.00
2022-12-16T10:34:28.482Z,49.17
2022-12-16T10:37:20.529Z,46.13
2022-12-16T10:40:09.815Z,36.00
2022-12-16T10:43:00.943Z,42.70
2022-12-16T10:45:49.430Z,39.40
2022-12-16T10:48:51.169Z,35.00
2022-12-16T10:51:42.742Z,33.50
2022-12-16T10:54:43.569Z,36.93
2022-12-16T10:57:35.111Z,44.37
2022-12-16T11:00:33.821Z,35.37
2022-12-16T11:03:39.085Z,34.57
2022-12-16T11:06:40.907Z,41.73
2022-12-16T11:09:42.884Z,39.77
2022-12-16T11:12:40.627Z,44.93
2022-12-16T11:15:53.027Z,48.03
2022-12-16T11:18:48.222Z,43.97
2022-12-16T11:21:35.731Z,50.17
2022-12-16T11:24:33.082Z,43.50
2022-12-16T11:27:21.066Z,45.23
2022-12-16T11:30:12.431Z,44.27
2022-12-16T11:33:03.314Z,44.17
2022-12-16T11:35:54.017Z,48.00
2022-12-16T11:38:43.580Z,46.27
2022-12-16T11:41:44.095Z,42.03
2022-12-16T11:44:40.697Z,40.90
2022-12-16T11:47:35.850Z,44.53
2022-12-16T11:50:27.466Z,44.00
2022-12-16T11:53:18.291Z,37.00
2022-12-16T11:56:14.195Z,40.50
2022-12-16T11:59:06.256Z,37.57
2022-12-16T12:01:57.151Z,42.40
2022-12-16T12:04:43.560Z,34.20
2022-12-16T12:07:45.645Z,43.77
2022-12-16T12:10:54.663Z,41.83
2022-12-16T12:14:09.804Z,55.60
2022-12-16T12:17:09.218Z,42.10
2022-12-16T12:20:07.630Z,40.57
2022-12-16T12:22:56.726Z,39.67
2022-12-16T12:25:50.849Z,35.67
2022-12-16T12:31:19.739Z,39.90
2022-12-16T12:34:13.602Z,40.73
2022-12-16T12:37:08.393Z,35.93
2022-12-16T12:40:02.124Z,35.30
2022-12-16T12:42:56.867Z,47.43
2022-12-16T12:46:10.641Z,35.77
2022-12-16T12:49:05.001Z,36.40
2022-12-16T12:51:56.485Z,36.33
2022-12-16T12:54:49.355Z,41.33
2022-12-16T12:57:40.186Z,36.97
2022-12-16T13:00:35.711Z,37.30
2022-12-16T13:03:27.188Z,36.03
2022-12-16T13:06:22.055Z,36.67
2022-12-16T13:09:16.199Z,36.40
2022-12-16T13:12:43.176Z,34.10
2022-12-16T13:15:39.907Z,35.40
2022-12-16T13:18:40.179Z,38.30
2022-12-16T13:21:59.508Z,34.50
2022-12-16T13:24:56.461Z,36.50
2022-12-16T13:27:43.978Z,36.83
2022-12-16T13:30:43.062Z,37.13
2022-12-16T13:33:48.550Z,36.93
2022-12-16T13:36:36.463Z,40.53
2022-12-16T13:39:39.900Z,35.73
2022-12-16T13:42:45.512Z,42.70
2022-12-16T13:45:58.886Z,33.77
2022-12-16T13:48:57.479Z,38.63
2022-12-16T13:52:25.592Z,35.37
2022-12-16T13:55:24.757Z,41.57
2022-12-16T13:58:17.677Z,38.37
2022-12-16T14:01:16.594Z,39.30
2022-12-16T14:04:06.011Z,40.50
2022-12-16T14:06:55.593Z,38.17
2022-12-16T14:09:51.650Z,39.87
2022-12-16T14:13:02.407Z,38.60
2022-12-16T14:15:55.062Z,38.73
2022-12-16T14:18:53.489Z,38.43
2022-12-16T14:21:47.296Z,39.53
2022-12-16T14:24:42.341Z,39.00
2022-12-16T14:27:37.032Z,40.23
2022-12-16T14:30:35.680Z,40.60
2022-12-16T14:33:46.874Z,40.50
2022-12-16T14:36:42.495Z,43.57
2022-12-16T14:39:41.693Z,42.37
2022-12-16T14:42:40.585Z,42.33
2022-12-16T14:45:47.748Z,41.10
2022-12-16T14:48:49.493Z,42.27
2022-12-16T14:51:48.827Z,39.13
2022-12-16T14:54:44.058Z,36.80
2022-12-16T14:57:32.721Z,41.60
2022-12-16T15:00:31.612Z,39.07
2022-12-16T15:03:22.233Z,36.30
2022-12-16T15:06:09.721Z,46.63
2022-12-16T15:09:04.611Z,40.63
2022-12-16T15:11:51.709Z,45.13
2022-12-16T15:14:44.194Z,46.33
2022-12-16T15:17:38.385Z,41.07
2022-12-16T15:20:34.126Z,45.30
2022-12-16T15:23:20.288Z,42.53
2022-12-16T15:26:13.173Z,44.57
2022-12-16T15:29:01.188Z,43.47
2022-12-16T15:31:51.266Z,42.93
2022-12-16T15:34:43.151Z,44.43
2022-12-16T15:37:37.815Z,46.20
2022-12-16T15:40:34.451Z,40.53
2022-12-16T15:43:36.373Z,49.20
2022-12-16T15:46:22.330Z,46.50
2022-12-16T15:49:10.429Z,54.97
2022-12-16T15:52:03.567Z,42.67
2022-12-16T15:54:50.974Z,45.23
2022-12-16T15:57:47.751Z,44.83
2022-12-16T16:00:42.604Z,44.77
2022-12-16T16:03:42.499Z,46.53
2022-12-16T16:06:36.821Z,51.77
2022-12-16T16:09:32.624Z,42.07
2022-12-16T16:12:18.640Z,43.77
2022-12-16T16:15:06.392Z,40.90
2022-12-16T16:17:53.630Z,37.47
2022-12-16T16:20:41.563Z,42.87
2022-12-16T16:23:29.273Z,43.80
2022-12-16T16:26:21.400Z,40.13
2022-12-16T16:29:06.964Z,41.50
2022-12-16T16:31:53.146Z,39.17
2022-12-16T16:34:40.384Z,46.87
2022-12-16T16:37:33.043Z,47.87
2022-12-16T16:40:20.146Z,39.20
2022-12-16T16:43:06.066Z,43.50
2022-12-16T16:45:52.028Z,44.77
2022-12-16T16:48:37.963Z,43.50
2022-12-16T16:51:36.657Z,37.97
2022-12-16T16:54:22.724Z,44.83
2022-12-16T16:57:14.417Z,44.80
2022-12-16T17:00:00.528Z,44.27
2022-12-16T17:02:46.503Z,49.10
2022-12-16T17:05:32.370Z,41.83
2022-12-16T17:08:19.855Z,48.07
2022-12-16T17:11:06.282Z,47.70
2022-12-16T17:13:53.096Z,50.57
2022-12-16T17:16:39.147Z,46.93
2022-12-16T17:19:24.570Z,48.80
2022-12-16T17:22:10.570Z,46.53
2022-12-16T17:24:57.896Z,42.30
2022-12-16T17:27:44.532Z,46.27
2022-12-16T17:30:36.186Z,47.87
2022-12-16T17:33:24.674Z,50.30
2022-12-16T17:36:16.255Z,47.47
2022-12-16T17:39:02.989Z,52.60
2022-12-16T17:42:03.623Z,51.93
2022-12-16T17:44:49.334Z,51.63
2022-12-16T17:47:41.503Z,48.47
2022-12-16T17:50:28.513Z,49.53
2022-12-16T17:55:50.244Z,50.07
2022-12-16T17:58:37.483Z,55.67
2022-12-16T18:01:24.929Z,52.37
2022-12-16T18:04:11.922Z,60.50
2022-12-16T18:06:57.501Z,51.00
2022-12-16T18:09:43.016Z,55.93
2022-12-16T18:12:28.835Z,61.00
2022-12-16T18:15:16.244Z,58.67
2022-12-16T18:18:02.095Z,53.10
2022-12-16T18:20:48.464Z,54.90
2022-12-16T18:23:34.343Z,54.30
2022-12-16T18:26:28.728Z,54.93
2022-12-16T18:29:15.157Z,65.63
2022-12-16T18:32:02.217Z,63.83
2022-12-16T18:34:48.116Z,70.60
2022-12-16T18:37:33.964Z,69.93
2022-12-16T18:40:20.636Z,69.37
2022-12-16T18:43:06.558Z,71.13
2022-12-16T18:45:52.082Z,68.47
2022-12-16T18:48:40.117Z,73.87
2022-12-16T18:51:27.203Z,69.53
2022-12-16T18:54:12.787Z,75.57
2022-12-16T18:56:58.868Z,70.07
2022-12-16T18:59:44.515Z,71.80
2022-12-16T19:02:30.855Z,71.80
2022-12-16T19:05:17.942Z,68.03
2022-12-16T19:08:04.733Z,76.40
2022-12-16T19:10:51.558Z,82.73
2022-12-16T19:13:37.556Z,72.00
2022-12-16T19:16:23.558Z,75.30
2022-12-16T19:19:09.175Z,71.93
2022-12-16T19:21:56.922Z,74.77
2022-12-16T19:24:42.596Z,91.70
2022-12-16T19:27:28.541Z,77.90
2022-12-16T19:30:14.511Z,77.73
2022-12-16T19:33:00.926Z,67.03
2022-12-16T19:35:46.648Z,85.87
2022-12-16T19:38:33.560Z,88.70
2022-12-16T19:41:19.509Z,77.43
2022-12-16T19:47:22.576Z,86.20
2022-12-16T19:50:09.662Z,92.67
2022-12-16T19:52:55.983Z,91.30
2022-12-16T19:55:43.403Z,106.20
2022-12-16T19:58:29.201Z,97.30
2022-12-16T20:01:15.155Z,106.90
2022-12-16T20:04:00.842Z,121.30
2022-12-16T20:06:46.519Z,108.37
2022-12-16T20:12:15.624Z,107.37
2022-12-16T20:15:01.187Z,107.80
2022-12-16T20:17:47.275Z,110.30
2022-12-16T20:23:09.252Z,104.27
2022-12-16T20:28:32.421Z,110.00
2022-12-16T20:31:20.078Z,94.17
2022-12-16T20:34:10.995Z,93.37
2022-12-16T20:36:56.785Z,90.13
2022-12-16T20:39:46.654Z,85.27
2022-12-16T20:42:35.440Z,100.43
2022-12-16T20:45:22.994Z,79.87
2022-12-16T20:48:08.978Z,85.17
2022-12-16T20:50:56.044Z,93.17
2022-12-16T20:53:47.474Z,84.57
2022-12-16T20:56:33.325Z,80.03
2022-12-16T20:59:19.286Z,82.60
2022-12-16T21:05:11.888Z,78.73
2022-12-16T21:07:57.188Z,75.87
2022-12-16T21:10:42.898Z,87.03
2022-12-16T21:13:30.440Z,75.40
2022-12-16T21:14:28.406Z,88.17
2022-12-16T21:16:16.978Z,78.67
2022-12-16T21:19:05.001Z,75.97
2022-12-16T21:21:50.795Z,77.63
2022-12-16T21:24:37.685Z,86.27
2022-12-16T21:27:35.323Z,84.03
2022-12-16T21:30:20.965Z,87.63
2022-12-16T21:33:09.289Z,77.67
2022-12-16T21:35:56.974Z,83.73
2022-12-16T21:38:42.448Z,87.00
2022-12-16T21:41:27.152Z,91.90
2022-12-16T21:44:12.769Z,90.63
2022-12-16T21:46:58.284Z,91.57
2022-12-16T21:49:43.935Z,85.53
2022-12-16T21:52:31.196Z,94.47
2022-12-16T21:55:17.038Z,96.47
2022-12-16T21:58:02.456Z,99.30
2022-12-16T22:00:48.141Z,92.53
2022-12-16T22:03:35.555Z,105.73
2022-12-16T22:06:21.561Z,90.30
2022-12-16T22:09:08.613Z,107.73
2022-12-16T22:11:55.231Z,101.77
2022-12-16T22:14:45.055Z,97.90
2022-12-16T22:17:30.590Z,103.60
2022-12-16T22:20:19.576Z,112.53
2022-12-16T22:23:05.347Z,113.20
2022-12-16T22:25:52.325Z,94.93
2022-12-16T22:28:38.685Z,91.33
2022-12-16T22:31:24.792Z,94.03
2022-12-16T22:34:11.497Z,102.17
2022-12-16T22:36:57.405Z,90.43
2022-12-16T22:39:45.024Z,95.33
2022-12-16T22:42:32.719Z,82.67
2022-12-16T22:45:18.450Z,79.07
2022-12-16T22:48:05.225Z,98.13
2022-12-16T22:50:50.768Z,90.83
2022-12-16T22:53:37.568Z,86.37
2022-12-16T22:56:23.420Z,90.60
2022-12-16T22:59:10.591Z,93.30
2022-12-16T23:01:58.297Z,82.43
2022-12-16T23:04:44.344Z,94.33
2022-12-16T23:07:29.791Z,88.70
2022-12-16T23:10:15.310Z,85.30
2022-12-16T23:13:01.366Z,101.90
2022-12-16T23:15:48.428Z,88.43
2022-12-16T23:18:34.127Z,84.83
2022-12-16T23:21:20.319Z,90.10
2022-12-16T23:24:11.009Z,109.33
2022-12-16T23:26:57.298Z,84.47
2022-12-16T23:29:44.961Z,105.37
2022-12-16T23:35:13.648Z,87.37
2022-12-16T23:37:59.344Z,78.70
2022-12-16T23:40:59.248Z,85.27
2022-12-16T23:49:13.113Z,86.23
2022-12-16T23:52:01.693Z,86.43
2022-12-16T23:55:03.479Z,93.73
2022-12-16T23:57:49.138Z,88.20
